Time;durP1;ratioP1;P1;durP2;ratioP2;P2;SDS_P1;SDS_P2;PMS_P1;PMS_P2;Temp;Humidity;BMP_temperature;BMP_pressure;BME280_temperature;BME280_humidity;BME280_pressure;Samples;Min_cycle;Max_cycle;Signal;HPM_P1;HPM_P2
2022/09/23 00:00:38;;;;;;;1.40;1.40;;;21.00;66.70;;;;;;5057864;28;43480;-71
2022/09/23 00:03:08;;;;;;;1.60;1.60;;;21.00;66.60;;;;;;5058503;28;43743;-73
2022/09/23 00:05:36;;;;;;;1.40;1.40;;;20.90;66.50;;;;;;5065012;28;43515;-71
2022/09/23 00:08:04;;;;;;;1.40;1.40;;;20.90;66.60;;;;;;5063963;28;43401;-71
2022/09/23 00:10:32;;;;;;;1.50;1.50;;;20.90;67.00;;;;;;5056536;28;43534;-70
2022/09/23 00:13:00;;;;;;;1.40;1.40;;;21.00;67.00;;;;;;5065231;28;43885;-70
2022/09/23 00:15:29;;;;;;;1.23;1.23;;;21.10;66.80;;;;;;5063056;28;43402;-70
2022/09/23 00:17:57;;;;;;;1.37;1.37;;;21.20;66.20;;;;;;5055658;28;43391;-71
2022/09/23 00:20:27;;;;;;;1.60;1.60;;;21.30;65.90;;;;;;5067061;28;43763;-71
2022/09/23 00:22:56;;;;;;;1.43;1.43;;;21.30;65.70;;;;;;5055330;28;45845;-71
2022/09/23 00:25:24;;;;;;;1.23;1.23;;;21.30;65.70;;;;;;5065538;28;45086;-70
2022/09/23 00:27:52;;;;;;;1.33;1.33;;;21.20;65.90;;;;;;5063976;28;43446;-72
2022/09/23 00:30:22;;;;;;;1.40;1.40;;;21.10;66.00;;;;;;5060879;28;43965;-69
2022/09/23 00:32:51;;;;;;;1.30;1.30;;;21.10;66.50;;;;;;5059499;28;43775;-72
2022/09/23 00:35:19;;;;;;;1.40;1.40;;;21.10;66.60;;;;;;5066303;28;43984;-70
2022/09/23 00:37:48;;;;;;;1.23;1.23;;;21.00;66.40;;;;;;5065667;28;43497;-70
2022/09/23 00:40:16;;;;;;;1.50;1.50;;;21.00;66.30;;;;;;5054082;28;43523;-70
2022/09/23 00:42:48;;;;;;;1.50;1.50;;;21.00;66.50;;;;;;5045401;28;45366;-72
2022/09/23 00:45:16;;;;;;;1.37;1.37;;;20.90;66.80;;;;;;5054627;28;43714;-71
2022/09/23 00:47:46;;;;;;;1.23;1.23;;;21.00;66.90;;;;;;5060821;28;43447;-70
2022/09/23 00:50:18;;;;;;;1.20;1.20;;;20.90;66.60;;;;;;5051894;28;43844;-70
2022/09/23 00:52:49;;;;;;;1.40;1.40;;;20.90;66.50;;;;;;5061136;28;45053;-70
2022/09/23 00:55:19;;;;;;;1.33;1.33;;;20.90;66.60;;;;;;5066615;28;43399;-71
2022/09/23 00:57:47;;;;;;;1.30;1.30;;;20.90;66.80;;;;;;5056857;28;43574;-72
2022/09/23 01:00:15;;;;;;;1.40;1.40;;;20.90;67.10;;;;;;5062784;28;43391;-71
2022/09/23 01:02:43;;;;;;;1.50;1.50;;;21.00;66.80;;;;;;5059518;28;43607;-70
2022/09/23 01:05:11;;;;;;;1.20;1.20;;;21.10;66.40;;;;;;5062173;28;43407;-68
2022/09/23 01:07:38;;;;;;;1.50;1.50;;;21.20;65.90;;;;;;5063612;28;43423;-69
2022/09/23 01:10:09;;;;;;;1.30;1.30;;;21.30;65.60;;;;;;5057521;28;43431;-72
2022/09/23 01:12:44;;;;;;;1.37;1.37;;;21.40;65.50;;;;;;5062292;28;43601;-74
2022/09/23 01:15:15;;;;;;;1.33;1.33;;;21.30;65.40;;;;;;5067460;28;44762;-70
2022/09/23 01:17:48;;;;;;;1.33;1.33;;;21.20;65.70;;;;;;5059564;28;43418;-74
2022/09/23 01:20:36;;;;;;;1.27;1.27;;;21.10;65.80;;;;;;5054409;28;43416;-71
2022/09/23 01:23:13;;;;;;;1.40;1.40;;;21.10;66.40;;;;;;5050736;28;43926;-72
2022/09/23 01:25:51;;;;;;;1.67;1.67;;;21.10;66.40;;;;;;5051905;28;43440;-70
2022/09/23 01:28:28;;;;;;;1.30;1.30;;;21.00;66.20;;;;;;5053154;28;43731;-71
2022/09/23 01:30:58;;;;;;;1.50;1.50;;;21.00;66.30;;;;;;5060021;28;43901;-70
2022/09/23 01:33:30;;;;;;;1.30;1.30;;;20.90;66.50;;;;;;5060138;28;44073;-70
2022/09/23 01:36:09;;;;;;;1.33;1.33;;;20.90;66.80;;;;;;5046917;28;44255;-69
2022/09/23 01:38:41;;;;;;;1.60;1.60;;;21.00;66.60;;;;;;5058945;28;43483;-71
2022/09/23 01:41:42;;;;;;;1.40;1.40;;;21.00;66.50;;;;;;5058541;28;43483;-71
2022/09/23 01:44:11;;;;;;;1.40;1.40;;;20.90;66.50;;;;;;5062211;28;45278;-70
2022/09/23 01:46:42;;;;;;;1.50;1.50;;;20.90;66.90;;;;;;5045642;28;44432;-69
2022/09/23 01:49:13;;;;;;;1.50;1.50;;;20.90;66.90;;;;;;5058592;28;43352;-72
2022/09/23 01:51:42;;;;;;;1.40;1.40;;;21.00;66.60;;;;;;5057713;28;43430;-70
2022/09/23 01:54:12;;;;;;;1.50;1.50;;;21.20;66.30;;;;;;5064985;28;43556;-71
2022/09/23 01:56:42;;;;;;;1.13;1.13;;;21.30;65.80;;;;;;5060060;28;43925;-70
2022/09/23 01:59:12;;;;;;;1.30;1.30;;;21.30;65.60;;;;;;5063837;28;43419;-70
2022/09/23 02:01:43;;;;;;;1.33;1.33;;;21.30;65.40;;;;;;5059759;28;43464;-71
2022/09/23 02:04:13;;;;;;;1.30;1.30;;;21.20;65.50;;;;;;5051626;28;44065;-69
2022/09/23 02:06:43;;;;;;;1.20;1.20;;;21.20;65.70;;;;;;5052769;28;44292;-70
2022/09/23 02:09:12;;;;;;;1.50;1.50;;;21.10;66.10;;;;;;5059314;28;43488;-70
2022/09/23 02:11:40;;;;;;;1.50;1.50;;;21.10;66.40;;;;;;5058937;28;43400;-69
2022/09/23 02:14:14;;;;;;;1.40;1.40;;;21.10;66.30;;;;;;5061804;28;43596;-71
2022/09/23 02:16:46;;;;;;;1.30;1.30;;;21.00;66.20;;;;;;5036844;28;43800;-69
2022/09/23 02:19:15;;;;;;;1.40;1.40;;;21.00;66.30;;;;;;5062647;28;43517;-70
2022/09/23 02:21:43;;;;;;;1.40;1.40;;;20.90;66.60;;;;;;5059807;28;43586;-69
2022/09/23 02:24:12;;;;;;;1.30;1.30;;;21.00;66.90;;;;;;5055571;28;44095;-70
2022/09/23 02:26:44;;;;;;;1.40;1.40;;;21.10;66.70;;;;;;5053685;28;43360;-70
2022/09/23 02:29:18;;;;;;;1.40;1.40;;;21.20;66.20;;;;;;5059238;28;43503;-72
2022/09/23 02:31:53;;;;;;;1.30;1.30;;;21.20;65.70;;;;;;5056721;28;43341;-71
2022/09/23 02:34:41;;;;;;;1.20;1.20;;;21.30;65.60;;;;;;5045068;28;45574;-71
2022/09/23 02:37:15;;;;;;;1.50;1.50;;;21.20;65.50;;;;;;5055294;28;43473;-72
2022/09/23 02:39:50;;;;;;;1.33;1.33;;;21.20;65.80;;;;;;5064699;28;43973;-74
2022/09/23 02:42:20;;;;;;;1.23;1.23;;;21.10;66.10;;;;;;5063505;28;43475;-71
2022/09/23 02:44:48;;;;;;;1.23;1.23;;;21.00;66.30;;;;;;5050412;28;43875;-73
2022/09/23 02:47:18;;;;;;;1.27;1.27;;;21.00;66.20;;;;;;5059876;28;43755;-70
2022/09/23 02:49:45;;;;;;;1.30;1.30;;;21.00;66.20;;;;;;5062776;28;43447;-71
2022/09/23 02:52:13;;;;;;;1.20;1.20;;;21.00;66.20;;;;;;5062402;28;43447;-69
2022/09/23 02:54:41;;;;;;;1.23;1.23;;;20.90;66.30;;;;;;5059718;28;44803;-69
2022/09/23 02:57:09;;;;;;;1.37;1.37;;;20.90;66.80;;;;;;5064320;28;43590;-71
2022/09/23 02:59:37;;;;;;;1.37;1.37;;;20.90;66.70;;;;;;5053706;28;43477;-73
2022/09/23 03:02:37;;;;;;;1.20;1.20;;;20.90;66.40;;;;;;5037090;28;43751;-71
2022/09/23 03:05:07;;;;;;;1.30;1.30;;;20.90;66.50;;;;;;5053051;28;43612;-70
2022/09/23 03:07:39;;;;;;;1.30;1.30;;;20.90;66.40;;;;;;5055850;28;43332;-70
2022/09/23 03:10:09;;;;;;;1.30;1.30;;;20.90;67.00;;;;;;5059125;28;43403;-72
2022/09/23 03:12:40;;;;;;;1.43;1.40;;;20.90;66.80;;;;;;5043829;28;43440;-71
2022/09/23 03:15:19;;;;;;;1.50;1.50;;;21.00;66.40;;;;;;5054548;28;45350;-70
2022/09/23 03:17:51;;;;;;;1.30;1.30;;;21.20;66.00;;;;;;5051784;28;44672;-71
2022/09/23 03:20:23;;;;;;;1.40;1.40;;;21.30;65.50;;;;;;5046307;28;43927;-70
2022/09/23 03:22:52;;;;;;;1.20;1.20;;;21.30;65.30;;;;;;5063032;28;43455;-71
2022/09/23 03:25:23;;;;;;;1.40;1.40;;;21.30;65.30;;;;;;5054934;28;43649;-71
2022/09/23 03:27:55;;;;;;;1.23;1.23;;;21.20;65.40;;;;;;5067133;28;43423;-71
2022/09/23 03:30:23;;;;;;;1.60;1.60;;;21.20;65.70;;;;;;5061896;28;43563;-69
2022/09/23 03:32:53;;;;;;;1.63;1.43;;;21.10;66.30;;;;;;5071205;28;43784;-69
2022/09/23 03:35:21;;;;;;;1.80;1.80;;;21.10;66.40;;;;;;5059761;28;43593;-70
2022/09/23 03:37:53;;;;;;;2.40;1.90;;;21.00;66.10;;;;;;5057538;28;43393;-71
2022/09/23 03:40:21;;;;;;;2.07;1.97;;;21.00;66.20;;;;;;5067338;28;44712;-70
2022/09/23 03:42:50;;;;;;;4.43;2.87;;;20.90;66.20;;;;;;5064237;28;43419;-71
2022/09/23 03:45:19;;;;;;;3.73;3.30;;;20.90;66.70;;;;;;5067197;28;43601;-69
2022/09/23 03:47:47;;;;;;;8.07;3.60;;;20.90;66.60;;;;;;5056069;28;43411;-71
2022/09/23 03:50:17;;;;;;;6.37;3.43;;;20.90;66.30;;;;;;5058864;28;43420;-70
2022/09/23 03:52:45;;;;;;;5.60;3.53;;;20.90;66.30;;;;;;5065820;28;43428;-74
2022/09/23 03:55:15;;;;;;;8.10;4.03;;;20.90;66.40;;;;;;5064527;28;43771;-69
2022/09/23 03:57:43;;;;;;;9.37;4.33;;;20.90;66.90;;;;;;5060604;28;43551;-70
2022/09/23 04:00:12;;;;;;;9.50;4.80;;;20.90;66.90;;;;;;5061942;28;43392;-70
2022/09/23 04:02:40;;;;;;;12.30;4.70;;;21.00;66.60;;;;;;5064646;28;43824;-71
2022/09/23 04:05:10;;;;;;;11.43;4.87;;;21.10;66.20;;;;;;5062117;28;44679;-72
2022/09/23 04:07:39;;;;;;;11.80;4.80;;;21.20;65.70;;;;;;5059858;28;43478;-70
2022/09/23 04:10:08;;;;;;;10.03;4.70;;;21.30;65.40;;;;;;5063016;28;43426;-70
2022/09/23 04:12:36;;;;;;;11.40;4.43;;;21.30;65.30;;;;;;5063779;28;43648;-74
2022/09/23 04:15:05;;;;;;;7.13;4.13;;;21.20;65.40;;;;;;5054227;28;43552;-70
2022/09/23 04:17:33;;;;;;;10.50;4.73;;;21.10;65.50;;;;;;5045439;28;44310;-69
2022/09/23 04:20:01;;;;;;;10.03;5.03;;;21.10;65.90;;;;;;5065151;28;43778;-70
2022/09/23 04:22:29;;;;;;;9.67;5.03;;;21.00;66.20;;;;;;5066150;28;43986;-70
2022/09/23 04:24:59;;;;;;;11.63;4.93;;;21.00;66.10;;;;;;5048358;28;44598;-70
2022/09/23 04:27:26;;;;;;;8.53;4.70;;;20.90;66.10;;;;;;5063789;28;43507;-70
2022/09/23 04:29:54;;;;;;;9.77;5.07;;;20.90;66.10;;;;;;5051499;28;43443;-70
2022/09/23 04:32:23;;;;;;;9.97;5.03;;;20.90;66.30;;;;;;5061218;28;43436;-71
2022/09/23 04:34:51;;;;;;;9.23;4.83;;;20.90;66.80;;;;;;5068462;28;47091;-70
2022/09/23 04:37:19;;;;;;;9.60;5.20;;;20.90;66.60;;;;;;5058400;28;44418;-70
2022/09/23 04:39:47;;;;;;;8.27;5.30;;;21.00;66.20;;;;;;5058998;28;43467;-72
2022/09/23 04:42:16;;;;;;;10.80;5.27;;;21.10;66.00;;;;;;5069981;28;43441;-69
2022/09/23 04:44:44;;;;;;;10.43;5.80;;;21.10;65.80;;;;;;5060526;28;43862;-72
2022/09/23 04:47:12;;;;;;;11.60;5.40;;;21.10;66.20;;;;;;5058480;28;43421;-71
2022/09/23 04:49:40;;;;;;;11.27;5.30;;;21.10;66.30;;;;;;5067038;28;43439;-70
2022/09/23 04:52:08;;;;;;;10.40;5.50;;;21.10;66.10;;;;;;5067297;28;43484;-70
2022/09/23 04:54:36;;;;;;;8.27;4.67;;;21.00;66.00;;;;;;5063195;28;43595;-70
2022/09/23 04:57:09;;;;;;;9.10;4.70;;;20.90;65.90;;;;;;5051412;28;43535;-69
2022/09/23 04:59:40;;;;;;;9.27;4.63;;;20.90;66.20;;;;;;5038760;28;43979;-69
2022/09/23 05:02:08;;;;;;;10.40;4.50;;;20.90;66.60;;;;;;5056132;28;43524;-71
2022/09/23 05:04:36;;;;;;;8.53;4.90;;;21.00;66.50;;;;;;5053281;28;43623;-70
2022/09/23 05:07:04;;;;;;;6.63;4.37;;;21.10;66.30;;;;;;5051712;28;44327;-71
2022/09/23 05:09:32;;;;;;;7.63;4.70;;;21.00;65.90;;;;;;5057728;28;43437;-71
2022/09/23 05:12:00;;;;;;;7.93;4.60;;;21.00;66.00;;;;;;5057460;28;43560;-69
2022/09/23 05:14:28;;;;;;;8.47;4.57;;;21.00;66.40;;;;;;5056340;28;43828;-71
2022/09/23 05:16:58;;;;;;;6.60;4.60;;;21.00;66.30;;;;;;5055695;28;44791;-70
2022/09/23 05:19:26;;;;;;;5.43;4.00;;;20.90;66.00;;;;;;5061743;28;43462;-70
2022/09/23 05:21:54;;;;;;;5.57;4.20;;;20.90;66.10;;;;;;5063825;28;43448;-71
2022/09/23 05:24:23;;;;;;;6.27;4.20;;;20.90;66.20;;;;;;5049848;28;45865;-71
2022/09/23 05:26:53;;;;;;;7.87;4.60;;;20.90;66.70;;;;;;5056796;28;43470;-71
2022/09/23 05:29:20;;;;;;;6.90;4.33;;;20.90;66.70;;;;;;5054432;28;43375;-71
2022/09/23 05:31:48;;;;;;;6.97;4.30;;;21.00;66.40;;;;;;5058399;28;43367;-71
2022/09/23 05:34:18;;;;;;;4.67;4.10;;;21.10;66.10;;;;;;5069745;28;43616;-70
2022/09/23 05:36:48;;;;;;;6.10;4.40;;;21.10;65.80;;;;;;5059316;28;43425;-72
2022/09/23 05:39:18;;;;;;;5.63;4.03;;;21.10;65.80;;;;;;5058436;28;43484;-72
2022/09/23 05:41:46;;;;;;;6.10;4.03;;;21.00;66.10;;;;;;5059495;28;43418;-70
2022/09/23 05:44:14;;;;;;;6.70;4.30;;;21.00;66.10;;;;;;5057045;28;43588;-69
2022/09/23 05:46:42;;;;;;;4.67;3.77;;;21.00;65.90;;;;;;5054986;28;44090;-70
2022/09/23 05:49:10;;;;;;;4.47;3.90;;;21.00;66.00;;;;;;5055015;28;43427;-71
2022/09/23 05:51:40;;;;;;;4.97;3.97;;;20.90;66.00;;;;;;5060046;28;43383;-70
2022/09/23 05:54:08;;;;;;;4.90;3.77;;;20.90;66.60;;;;;;5068710;28;43600;-69
2022/09/23 05:56:36;;;;;;;5.00;3.67;;;20.90;66.30;;;;;;5066255;28;43401;-73
2022/09/23 05:59:05;;;;;;;4.07;3.67;;;20.90;66.20;;;;;;5060353;28;43453;-70
2022/09/23 06:01:35;;;;;;;3.90;3.60;;;20.90;66.20;;;;;;5063190;28;43432;-69
2022/09/23 06:04:04;;;;;;;6.87;4.40;;;20.90;66.30;;;;;;5054232;28;43683;-70
2022/09/23 06:06:33;;;;;;;6.13;3.80;;;20.80;66.70;;;;;;5063628;28;43418;-70
2022/09/23 06:09:03;;;;;;;3.87;3.50;;;20.90;66.70;;;;;;5051419;28;43969;-70
2022/09/23 06:11:31;;;;;;;3.70;3.40;;;21.00;66.40;;;;;;5062910;28;43489;-71
2022/09/23 06:14:01;;;;;;;3.60;3.30;;;21.10;66.10;;;;;;5065234;28;45594;-70
2022/09/23 06:16:30;;;;;;;4.37;3.67;;;21.10;65.80;;;;;;5062017;28;43421;-70
2022/09/23 06:18:59;;;;;;;3.67;3.33;;;21.00;65.60;;;;;;5061971;28;43451;-70
2022/09/23 06:21:32;;;;;;;4.07;3.73;;;21.00;66.10;;;;;;5060726;28;43463;-69
2022/09/23 06:24:02;;;;;;;4.43;3.70;;;21.00;66.00;;;;;;5047313;28;45741;-71
2022/09/23 06:26:32;;;;;;;4.03;3.60;;;21.00;65.80;;;;;;5039914;28;44967;-70
2022/09/23 06:29:01;;;;;;;4.13;3.80;;;20.90;65.90;;;;;;5069471;28;43447;-69
2022/09/23 06:31:29;;;;;;;4.07;3.67;;;20.90;65.90;;;;;;5066173;28;43472;-69
2022/09/23 06:33:57;;;;;;;3.67;3.37;;;20.90;66.50;;;;;;5064827;28;44007;-69
2022/09/23 06:36:38;;;;;;;3.53;3.23;;;20.90;66.40;;;;;;5053658;28;43474;-72
2022/09/23 06:39:13;;;;;;;3.03;2.83;;;20.90;66.20;;;;;;5055834;28;43676;-71
2022/09/23 06:41:41;;;;;;;3.50;3.20;;;20.80;66.10;;;;;;5046834;28;44120;-71
2022/09/23 06:44:12;;;;;;;3.33;3.10;;;20.80;66.20;;;;;;5068687;28;45774;-70
2022/09/23 06:46:40;;;;;;;5.20;3.80;;;20.80;66.70;;;;;;5058305;28;43388;-68
2022/09/23 06:49:08;;;;;;;3.60;3.30;;;20.80;66.70;;;;;;5052500;28;43447;-71
2022/09/23 06:51:36;;;;;;;3.47;3.17;;;20.90;66.50;;;;;;5058636;28;43435;-71
2022/09/23 06:54:04;;;;;;;3.30;3.10;;;21.00;65.90;;;;;;5056035;28;43611;-70
2022/09/23 06:56:33;;;;;;;3.47;3.23;;;21.20;65.70;;;;;;5040854;28;44574;-70
2022/09/23 06:59:08;;;;;;;3.57;3.27;;;21.20;65.50;;;;;;5056727;28;43367;-70
2022/09/23 07:01:36;;;;;;;3.20;3.00;;;21.10;66.00;;;;;;5057931;28;43967;-72
2022/09/23 07:04:06;;;;;;;3.50;3.20;;;21.10;65.40;;;;;;5061264;28;43624;-70
2022/09/23 07:06:34;;;;;;;3.30;3.00;;;21.00;65.60;;;;;;5058175;28;45126;-69
2022/09/23 07:09:03;;;;;;;3.23;2.97;;;20.90;66.00;;;;;;5056410;28;43531;-69
2022/09/23 07:11:30;;;;;;;3.20;3.00;;;20.90;66.20;;;;;;5071472;28;43523;-70
2022/09/23 07:14:00;;;;;;;3.37;3.07;;;20.90;66.10;;;;;;5055777;28;45320;-70
2022/09/23 07:16:28;;;;;;;3.30;3.00;;;20.90;66.10;;;;;;5066372;28;44273;-71
2022/09/23 07:18:56;;;;;;;3.33;3.13;;;20.90;66.20;;;;;;5069107;28;43407;-69
2022/09/23 07:21:23;;;;;;;2.80;2.70;;;20.80;66.50;;;;;;5061540;28;43461;-70
2022/09/23 07:23:52;;;;;;;3.53;3.20;;;20.80;66.70;;;;;;5066010;28;43591;-71
2022/09/23 07:26:21;;;;;;;3.07;2.87;;;20.90;66.60;;;;;;5062266;28;44595;-70
2022/09/23 07:28:54;;;;;;;3.57;3.30;;;20.90;66.10;;;;;;5040055;28;43411;-69
2022/09/23 07:31:23;;;;;;;3.23;3.03;;;21.00;65.90;;;;;;5045459;28;43504;-70
2022/09/23 07:34:05;;;;;;;3.03;2.83;;;21.00;65.60;;;;;;5059609;28;43958;-70
2022/09/23 07:36:36;;;;;;;3.00;2.80;;;21.00;66.00;;;;;;5066786;28;43620;-70
2022/09/23 07:39:04;;;;;;;2.70;2.50;;;21.00;66.00;;;;;;5056701;28;43729;-69
2022/09/23 07:41:31;;;;;;;3.17;2.97;;;21.00;65.80;;;;;;5066894;28;43552;-70
2022/09/23 07:44:00;;;;;;;2.90;2.70;;;20.90;65.80;;;;;;5052249;28;43905;-69
2022/09/23 07:46:30;;;;;;;2.87;2.70;;;20.90;65.90;;;;;;5057077;28;43453;-71
2022/09/23 07:48:58;;;;;;;2.63;2.53;;;20.90;66.60;;;;;;5053663;28;43337;-70
2022/09/23 07:51:26;;;;;;;3.10;2.90;;;20.90;66.50;;;;;;5065287;28;43705;-73
2022/09/23 07:54:01;;;;;;;3.13;2.93;;;20.80;66.20;;;;;;5058536;28;44431;-70
2022/09/23 07:56:29;;;;;;;2.70;2.60;;;20.80;66.20;;;;;;5064046;28;43436;-71
2022/09/23 07:59:02;;;;;;;3.00;2.80;;;20.80;66.30;;;;;;5065337;28;43417;-73
2022/09/23 08:01:33;;;;;;;2.60;2.50;;;20.80;66.80;;;;;;5058542;28;43428;-70
2022/09/23 08:04:02;;;;;;;2.87;2.73;;;20.80;66.60;;;;;;5058313;28;44081;-70
2022/09/23 08:06:30;;;;;;;2.53;2.43;;;20.80;66.30;;;;;;5065650;28;45014;-69
2022/09/23 08:08:58;;;;;;;3.03;2.93;;;20.80;66.30;;;;;;5070038;28;43719;-70
2022/09/23 08:11:26;;;;;;;3.20;3.10;;;20.80;66.40;;;;;;5059450;28;43749;-71
2022/09/23 08:13:54;;;;;;;2.67;2.53;;;20.70;66.60;;;;;;5068101;28;43608;-70
2022/09/23 08:16:22;;;;;;;2.90;2.70;;;20.70;66.90;;;;;;5062367;28;43788;-70
2022/09/23 08:18:52;;;;;;;2.67;2.57;;;20.80;66.70;;;;;;5060474;28;43383;-69
2022/09/23 08:21:20;;;;;;;2.90;2.70;;;20.90;66.30;;;;;;5059224;28;43439;-69
2022/09/23 08:23:48;;;;;;;2.77;2.67;;;21.10;65.90;;;;;;5062549;28;43607;-71
2022/09/23 08:26:16;;;;;;;2.67;2.57;;;21.20;65.50;;;;;;5067252;28;43950;-72
2022/09/23 08:28:49;;;;;;;2.77;2.60;;;21.20;65.30;;;;;;5061087;28;43321;-72
2022/09/23 08:31:16;;;;;;;2.60;2.50;;;21.20;65.30;;;;;;5060008;28;43391;-71
2022/09/23 08:33:44;;;;;;;2.30;2.20;;;21.10;65.40;;;;;;5055056;28;43604;-74
2022/09/23 08:36:14;;;;;;;2.90;2.70;;;21.00;65.60;;;;;;5051548;28;44380;-70
2022/09/23 08:38:41;;;;;;;2.87;2.67;;;20.90;66.10;;;;;;5060738;28;43399;-70
2022/09/23 08:41:14;;;;;;;2.43;2.33;;;20.90;66.10;;;;;;5054138;28;43838;-71
2022/09/23 08:43:44;;;;;;;2.50;2.40;;;20.90;66.00;;;;;;5057030;28;43604;-69
2022/09/23 08:46:12;;;;;;;2.67;2.50;;;20.80;66.00;;;;;;5055731;28;43357;-70
2022/09/23 08:48:42;;;;;;;2.30;2.20;;;20.80;66.10;;;;;;5061122;28;43405;-71
2022/09/23 08:51:14;;;;;;;2.70;2.60;;;20.80;66.70;;;;;;5051586;28;43421;-71
2022/09/23 08:53:42;;;;;;;2.60;2.50;;;20.80;66.40;;;;;;5059234;28;43598;-71
2022/09/23 08:56:13;;;;;;;2.20;2.10;;;20.80;66.40;;;;;;5058119;28;43424;-70
2022/09/23 08:58:49;;;;;;;2.17;2.10;;;20.80;66.30;;;;;;5060078;28;43507;-71
2022/09/23 09:01:19;;;;;;;2.40;2.30;;;20.80;66.40;;;;;;5065157;28;43543;-71
2022/09/23 09:03:49;;;;;;;2.27;2.27;;;20.70;66.80;;;;;;5063444;28;43697;-72
2022/09/23 09:06:20;;;;;;;2.90;2.70;;;20.70;66.70;;;;;;5061361;28;43490;-72
2022/09/23 09:08:53;;;;;;;2.33;2.23;;;20.90;66.60;;;;;;5059594;28;43391;-69
2022/09/23 09:11:22;;;;;;;2.40;2.30;;;21.00;66.10;;;;;;5056170;28;43966;-70
2022/09/23 09:13:53;;;;;;;2.20;2.10;;;21.10;65.60;;;;;;5065696;28;43794;-70
2022/09/23 09:16:28;;;;;;;2.43;2.33;;;21.20;65.40;;;;;;5065331;28;43452;-69
2022/09/23 09:19:19;;;;;;;1.97;1.93;;;21.20;65.30;;;;;;5068325;28;43822;-70
2022/09/23 09:21:50;;;;;;;2.27;2.17;;;21.00;65.30;;;;;;5055793;28;43716;-70
2022/09/23 09:24:19;;;;;;;2.40;2.30;;;21.00;65.60;;;;;;5069066;28;43600;-70
2022/09/23 09:26:47;;;;;;;2.30;2.20;;;20.90;66.00;;;;;;5058268;28;43397;-74
2022/09/23 09:29:16;;;;;;;2.27;2.17;;;20.90;66.20;;;;;;5069418;28;43475;-70
2022/09/23 09:32:02;;;;;;;1.87;1.87;;;20.90;66.10;;;;;;5063121;28;43416;-71
2022/09/23 09:34:32;;;;;;;2.27;2.17;;;20.80;66.10;;;;;;5062826;28;43945;-70
2022/09/23 09:37:04;;;;;;;2.00;2.00;;;20.80;66.20;;;;;;5059772;28;43368;-70
2022/09/23 09:39:34;;;;;;;2.17;2.07;;;20.80;66.40;;;;;;5057611;28;43443;-69
2022/09/23 09:42:02;;;;;;;2.37;2.27;;;20.80;66.70;;;;;;5059372;28;43543;-71
2022/09/23 09:44:34;;;;;;;2.07;1.97;;;20.80;66.40;;;;;;5060247;28;43603;-70
2022/09/23 09:47:25;;;;;;;2.17;2.17;;;20.80;67.00;;;;;;5061708;28;43384;-70
2022/09/23 09:49:57;;;;;;;2.27;2.17;;;20.80;66.40;;;;;;5067029;28;43387;-71
2022/09/23 09:52:28;;;;;;;2.03;2.03;;;20.70;66.30;;;;;;5066526;28;44112;-70
2022/09/23 09:54:58;;;;;;;1.60;1.60;;;20.80;66.90;;;;;;5059232;28;44199;-70
2022/09/23 09:57:30;;;;;;;2.17;2.07;;;20.80;66.70;;;;;;5057480;28;43440;-71
2022/09/23 10:00:32;;;;;;;2.33;2.23;;;20.90;66.30;;;;;;5066989;28;43482;-69
2022/09/23 10:03:02;;;;;;;2.03;2.03;;;21.00;66.00;;;;;;5053974;28;43400;-69
2022/09/23 10:05:31;;;;;;;1.80;1.80;;;21.00;65.90;;;;;;5063278;28;43914;-72
2022/09/23 10:08:14;;;;;;;2.23;2.13;;;21.00;66.00;;;;;;5071366;28;43487;-71
2022/09/23 10:10:53;;;;;;;1.93;1.83;;;21.00;66.10;;;;;;5055346;28;43737;-69
2022/09/23 10:13:22;;;;;;;1.73;1.73;;;20.90;66.00;;;;;;5064676;28;43495;-70
2022/09/23 10:15:53;;;;;;;2.10;2.00;;;20.90;66.00;;;;;;5068209;28;45284;-71
2022/09/23 10:18:26;;;;;;;1.93;1.87;;;20.90;66.20;;;;;;5066873;28;44140;-71
2022/09/23 10:21:00;;;;;;;1.90;1.90;;;20.90;66.60;;;;;;5054919;28;43419;-72
2022/09/23 10:23:32;;;;;;;2.00;2.00;;;20.80;66.40;;;;;;5044820;28;43519;-70
2022/09/23 10:26:01;;;;;;;1.80;1.80;;;20.80;66.40;;;;;;5061486;28;43991;-72
2022/09/23 10:28:38;;;;;;;1.80;1.80;;;20.80;66.30;;;;;;5055180;28;43400;-72
2022/09/23 10:31:07;;;;;;;1.83;1.83;;;20.80;66.40;;;;;;5068858;28;43392;-71
2022/09/23 10:33:38;;;;;;;1.60;1.60;;;20.80;66.80;;;;;;5058166;28;43848;-70
2022/09/23 10:36:09;;;;;;;1.80;1.80;;;20.80;66.70;;;;;;5062320;28;44282;-76
2022/09/23 10:38:38;;;;;;;1.80;1.80;;;20.90;66.60;;;;;;5060783;28;43443;-70
2022/09/23 10:46:48;;;;;;;1.80;1.80;;;21.00;65.90;;;;;;5062354;28;43632;-72
2022/09/23 10:49:50;;;;;;;1.80;1.80;;;21.00;66.10;;;;;;5061209;28;43363;-70
2022/09/23 10:52:30;;;;;;;2.13;2.07;;;21.00;66.00;;;;;;5065665;28;43380;-70
2022/09/23 10:55:06;;;;;;;1.70;1.70;;;20.90;65.90;;;;;;5044158;28;44017;-70
2022/09/23 10:57:41;;;;;;;1.93;1.83;;;20.90;66.10;;;;;;5067071;28;45914;-71
2022/09/23 11:00:14;;;;;;;2.03;2.00;;;20.90;66.20;;;;;;5062320;28;43454;-70
2022/09/23 11:02:51;;;;;;;1.97;1.87;;;20.80;66.50;;;;;;5059350;28;43447;-70
2022/09/23 11:05:33;;;;;;;1.70;1.70;;;20.80;66.20;;;;;;5063859;28;43496;-71
2022/09/23 11:08:07;;;;;;;1.70;1.70;;;20.80;66.20;;;;;;5065687;28;43675;-71
2022/09/23 11:11:02;;;;;;;1.77;1.77;;;20.80;66.20;;;;;;5051727;28;43501;-71
2022/09/23 11:13:42;;;;;;;1.67;1.67;;;20.80;66.40;;;;;;5061226;28;43496;-69
2022/09/23 11:16:16;;;;;;;1.70;1.70;;;20.80;66.70;;;;;;5057597;28;43460;-71
2022/09/23 11:19:06;;;;;;;1.80;1.80;;;20.80;66.50;;;;;;5052878;28;45544;-72
2022/09/23 11:21:55;;;;;;;1.77;1.70;;;20.90;66.20;;;;;;5051682;28;44259;-70
2022/09/23 11:24:39;;;;;;;1.50;1.50;;;21.10;65.80;;;;;;5065690;28;43475;-71
2022/09/23 11:27:12;;;;;;;1.50;1.50;;;21.10;65.50;;;;;;5067438;28;43529;-69
2022/09/23 11:30:10;;;;;;;1.70;1.70;;;21.00;65.40;;;;;;5056613;28;43599;-72
2022/09/23 11:33:06;;;;;;;1.40;1.40;;;21.00;65.60;;;;;;5060156;28;43555;-70
2022/09/23 11:35:36;;;;;;;1.60;1.60;;;20.90;65.80;;;;;;5036696;28;43480;-69
2022/09/23 11:38:07;;;;;;;1.67;1.67;;;20.90;66.30;;;;;;5059313;28;43721;-69
2022/09/23 11:40:36;;;;;;;1.60;1.60;;;20.90;66.30;;;;;;5062533;28;43595;-69
2022/09/23 11:43:17;;;;;;;1.50;1.50;;;20.80;66.10;;;;;;5045138;28;45073;-69
2022/09/23 11:45:47;;;;;;;1.73;1.73;;;20.80;66.20;;;;;;5059784;28;43396;-71
2022/09/23 11:48:17;;;;;;;1.87;1.87;;;20.80;66.30;;;;;;5055574;28;43379;-71
2022/09/23 11:50:46;;;;;;;1.40;1.40;;;20.80;66.70;;;;;;5059782;28;45788;-70
2022/09/23 11:53:18;;;;;;;1.50;1.50;;;20.80;66.50;;;;;;5055536;28;43495;-70
2022/09/23 11:55:48;;;;;;;1.90;1.90;;;20.90;66.20;;;;;;5059347;28;43786;-72
2022/09/23 11:58:28;;;;;;;1.63;1.63;;;21.00;65.90;;;;;;5061573;28;43702;-71
2022/09/23 12:00:59;;;;;;;1.50;1.50;;;20.90;65.80;;;;;;5066408;28;45396;-70
2022/09/23 12:03:33;;;;;;;1.60;1.60;;;20.90;66.40;;;;;;5056956;28;43430;-70
2022/09/23 12:06:14;;;;;;;1.43;1.43;;;20.90;66.20;;;;;;5049771;28;43372;-70
2022/09/23 12:08:42;;;;;;;1.60;1.60;;;20.90;66.00;;;;;;5065656;28;43410;-70
2022/09/23 12:11:18;;;;;;;1.37;1.37;;;20.90;66.00;;;;;;5056895;28;43606;-70
2022/09/23 12:13:52;;;;;;;1.50;1.50;;;20.90;66.10;;;;;;5057349;28;43445;-71
2022/09/23 12:16:53;;;;;;;1.60;1.60;;;20.80;66.30;;;;;;5060256;28;43855;-70
2022/09/23 12:19:47;;;;;;;1.40;1.40;;;20.80;66.40;;;;;;5062281;28;43580;-70
2022/09/23 12:22:25;;;;;;;1.50;1.50;;;20.80;66.30;;;;;;5062450;28;44687;-71
2022/09/23 12:24:56;;;;;;;1.60;1.60;;;20.80;66.30;;;;;;5069345;28;44277;-70
2022/09/23 12:27:30;;;;;;;1.50;1.50;;;20.80;66.40;;;;;;5063125;28;43545;-69
2022/09/23 12:30:01;;;;;;;1.67;1.67;;;20.70;66.60;;;;;;5067746;28;43455;-71
2022/09/23 12:32:29;;;;;;;1.47;1.47;;;20.80;66.70;;;;;;5058170;28;43957;-70
2022/09/23 12:34:57;;;;;;;1.57;1.57;;;20.90;66.60;;;;;;5066575;28;44308;-70
2022/09/23 12:37:27;;;;;;;1.33;1.33;;;21.00;66.20;;;;;;5063077;28;43474;-69
2022/09/23 12:39:58;;;;;;;1.20;1.20;;;21.10;65.70;;;;;;5057968;28;43438;-71
2022/09/23 12:42:26;;;;;;;1.30;1.30;;;21.10;65.50;;;;;;5059988;28;43605;-71
2022/09/23 12:45:19;;;;;;;1.50;1.50;;;21.00;65.40;;;;;;5051957;28;43495;-70
2022/09/23 12:47:46;;;;;;;1.20;1.20;;;21.00;65.50;;;;;;5064001;28;43896;-72
2022/09/23 12:50:46;;;;;;;1.43;1.43;;;20.90;65.60;;;;;;5058691;28;43989;-69
2022/09/23 12:53:51;;;;;;;1.50;1.50;;;20.90;66.20;;;;;;5058167;28;43632;-70
2022/09/23 12:56:20;;;;;;;1.30;1.30;;;20.90;66.20;;;;;;5042237;28;45082;-70
2022/09/23 12:59:11;;;;;;;1.30;1.30;;;20.80;66.00;;;;;;5056954;28;43590;-70
2022/09/23 13:01:40;;;;;;;1.43;1.43;;;20.80;66.10;;;;;;5059787;28;43420;-70
2022/09/23 13:07:18;;;;;;;1.50;1.50;;;20.80;66.60;;;;;;5052970;28;43765;-70
2022/09/23 13:09:47;;;;;;;1.30;1.30;;;20.90;66.50;;;;;;5053509;28;43449;-73
2022/09/23 13:12:18;;;;;;;1.40;1.40;;;20.90;66.10;;;;;;5047054;28;43440;-73
2022/09/23 13:14:46;;;;;;;1.30;1.30;;;21.00;65.90;;;;;;5062007;28;43596;-71
2022/09/23 13:17:24;;;;;;;1.30;1.30;;;20.90;65.80;;;;;;5057439;28;43649;-70